Líbí se Vám tento web? Budeme velmi rádi, pokud přidáte hodnocení +1

Seznam meteostanic a jejich METAR

Vyhledat místa podle abecedy:
A B C D E F G H I J K L M N O P Q R S T U V W X Y Z

Filtrovat:

ID stanice:
a/nebo
Název místa (fulltext):
 
Místo (ID)Naposledy načteno 
Gaborone (FBSK) 17.01.2018 21:00 UTC Zobrazit METAR
FBSK 172100Z 00000KT CAVOK 27/08 Q1016 NOSIG
Gaza (LVGZ) Zatím nenačteno  
Geneva (LSGG) 17.01.2018 20:50 UTC Zobrazit METAR
LSGG 172050Z 22009KT 180V240 9999 BKN034 SCT045 05/M02 Q1020 NOSIG
George Town (MWCR) 17.01.2018 21:00 UTC Zobrazit METAR
MWCR 172100Z 04010KT 9999 SCT016 26/23 Q1016
Georgetown (SYCJ) 17.01.2018 21:00 UTC Zobrazit METAR
SYCJ 172100Z 07008KT 9999 FEW023 28/23 Q1010 NOSIG
Gibraltar (LXGB) 17.01.2018 16:50 UTC Zobrazit METAR
LXGB 171650Z 05003KT CAVOK 16/12 Q1020
Glasgow (EGPF) 17.01.2018 19:50 UTC Zobrazit METAR
EGPF 171950Z AUTO 21010KT 9999 BKN046 03/01 Q0993
Gomel (UMGG) 30.08.2014 17:00 UTC Zobrazit METAR
UMGG 301700Z CAVOK 19/10 Q1017 R28/CLRD// NOSIG
Goteborg (ESGG) 17.01.2018 20:50 UTC Zobrazit METAR
ESGG 172050Z 19003KT 9999 BKN006 OVC009 M01/M01 Q0990 R21/29//95
Grand Turk Island (MBGT) 30.08.2017 15:00 UTC Zobrazit METAR
MBGT 301500Z 12011KT 9999 SCT015 30/26 Q1016
Graz (LOWG) 17.01.2018 20:50 UTC Zobrazit METAR
LOWG 172050Z 30003KT 260V340 9999 FEW040 BKN050 00/M04 Q1007 R17/19//95 NOSIG
Grodno (UMMG) Zatím nenačteno  
Guatemala City (MGGT) 17.01.2018 21:00 UTC Zobrazit METAR
MGGT 172100Z 36020KT 9999 FEW022 BKN090 19/08 Q1027 Q3033 FEW200
Reklama

Počasí na Váš email

Emaily jsou bez reklamy a bez spamu



Odhlásit newsletter

Reklama


Lunární kalendář

  • 24.01.
  • 31.01.
  • 07.02.
  • 15.02.



Jsme na Google Plus

Reklama
Povinné ručení



Může Vás také zajímat:


Reklama